Aeroporto :
LOGIN :

Iscrizione | Disclaimer

   EN    FR    IT 

 










Sommario :    VFR   VFR Marginale   IFR   IFR Intensivo   IFR Molto Intensivo
Visibilità : 
Base nubi : 
>= 8 km
>= 3000ft
5 / 8 km
1000 / 3000 ft
1500m / 5 km
500 / 1000 ft
800 / 1500m
200 / 500 ft
< 800m
< 200 ft
Simboli :   Temporali  Nebbia  Neve Forte  Precipitazioni Forti  Vento > 20 kt
SIGMETs :   Varie  Temporali  Ghiacco  Turbolenza  Onda orograficha  Ceneri Vulcaniche







- Altitudine del aeroporto : 327 ft
- Codice IATA : BHX
- Carte del aeroporto


EGBB - Birmingham

ULTIMO METAR :
  • 190450Z 25003KT 9999 BKN028 07/06 Q1024

METARs OBSOLETI :
  • 190420Z 23003KT 9999 FEW016 BKN029 07/06 Q1024
  • 190350Z 25003KT 9999 SCT017 BKN032 07/06 Q1024
  • 190320Z 25005KT 9999 BKN033 07/06 Q1024
  • 190250Z 26004KT 9999 BKN030 08/06 Q1024
  • 190220Z 25004KT 9999 BKN034 08/06 Q1024

TAF TAF EGBB
Valido dal 19 a 00 ore il 20 a 00 ore UTC


182257Z 1900/1924 24006KT 9999 FEW015 SCT020
TEMPO 1900/1915 BKN014
PROB30
TEMPO 1900/1908 9000 -RA BKN009
BECMG 1919/1922 BKN008
PROB30
TEMPO 1920/1924 6000 -RADZ
ATIS : +44 121 780 0910
Nessun NOTAM noto per questo aeroporto.



MetMap, La meteo Aeronautica in un colpo d'occhio ! - Copyright ORBIFLY Dicembre 2007 - Disclaimer

ORBIFLY MET'MAP TEAM :

Programmazione e sviluppo : Alexandra Zaïnal
Concezione e sviluppo : Baudouin d'Aumeries
Co-Programmazione e sviluppo : Marc-Olivier Méhu
Supporto tecnico e logistico : Manuel Goepfert
Aiuto per la traduzione : Arnaldo La Scala

Contatto : metmap@orbifly.com




FONTI E CREDITI :

   NOAA